createdAt,value
2023-04-22T00:00:44.400Z,2.45
2023-04-22T00:03:14.637Z,2.67
2023-04-22T00:05:44.928Z,2.50
2023-04-22T00:08:13.494Z,2.65
2023-04-22T00:10:42.082Z,4.50
2023-04-22T00:13:10.653Z,2.83
2023-04-22T00:15:39.486Z,2.85
2023-04-22T00:18:16.205Z,3.17
2023-04-22T00:20:45.293Z,1.98
2023-04-22T00:23:14.383Z,2.25
2023-04-22T00:25:43.012Z,2.45
2023-04-22T00:28:11.570Z,4.07
2023-04-22T00:30:40.245Z,2.80
2023-04-22T00:33:08.856Z,2.70
2023-04-22T00:35:38.876Z,3.58
2023-04-22T00:38:07.433Z,2.85
2023-04-22T00:40:36.107Z,3.38
2023-04-22T00:43:04.987Z,2.30
2023-04-22T00:45:33.695Z,3.28
2023-04-22T00:48:02.866Z,3.00
2023-04-22T00:50:31.622Z,3.28
2023-04-22T00:53:01.693Z,2.95
2023-04-22T00:55:30.371Z,4.20
2023-04-22T00:58:01.908Z,4.80
2023-04-22T01:00:31.034Z,3.42
2023-04-22T01:02:59.970Z,3.15
2023-04-22T01:05:30.658Z,2.83
2023-04-22T01:07:59.519Z,2.78
2023-04-22T01:10:29.514Z,2.58
2023-04-22T01:12:58.111Z,2.60
2023-04-22T01:15:28.743Z,3.05
2023-04-22T01:17:58.599Z,3.05
2023-04-22T01:20:29.693Z,4.30
2023-04-22T01:22:59.569Z,2.20
2023-04-22T01:25:29.485Z,3.72
2023-04-22T01:27:58.340Z,2.67
2023-04-22T01:30:27.284Z,3.40
2023-04-22T01:32:56.009Z,3.17
2023-04-22T01:35:25.578Z,2.00
2023-04-22T01:37:54.530Z,2.95
2023-04-22T01:40:24.782Z,3.67
2023-04-22T01:42:54.924Z,2.85
2023-04-22T01:45:23.435Z,2.40
2023-04-22T01:47:51.946Z,2.42
2023-04-22T01:50:23.394Z,2.70
2023-04-22T01:52:53.267Z,2.85
2023-04-22T01:55:24.608Z,2.53
2023-04-22T01:57:54.540Z,2.58
2023-04-22T02:00:23.066Z,3.55
2023-04-22T02:02:52.286Z,2.92
2023-04-22T02:05:20.975Z,2.95
2023-04-22T02:07:53.209Z,1.98
2023-04-22T02:10:22.113Z,2.78
2023-04-22T02:12:50.877Z,1.83
2023-04-22T02:15:21.062Z,2.63
2023-04-22T02:17:50.700Z,2.20
2023-04-22T02:20:19.326Z,3.38
2023-04-22T02:22:48.509Z,2.50
2023-04-22T02:25:17.094Z,1.98
2023-04-22T02:27:45.699Z,2.88
2023-04-22T02:30:14.454Z,2.65
2023-04-22T02:32:44.420Z,2.50
2023-04-22T02:35:16.377Z,2.85
2023-04-22T02:37:44.949Z,3.20
2023-04-22T02:40:13.867Z,1.80
2023-04-22T02:42:42.423Z,2.95
2023-04-22T02:45:11.953Z,3.70
2023-04-22T02:47:40.695Z,2.55
2023-04-22T02:50:37.888Z,2.60
2023-04-22T02:53:09.063Z,2.45
2023-04-22T02:55:37.672Z,3.00
2023-04-22T02:58:06.645Z,3.92
2023-04-22T03:00:35.264Z,2.97
2023-04-22T03:03:04.127Z,3.30
2023-04-22T03:05:35.861Z,2.60
2023-04-22T03:08:04.869Z,4.18
2023-04-22T03:10:35.139Z,4.18
2023-04-22T03:13:03.696Z,3.85
2023-04-22T03:15:32.232Z,2.50
2023-04-22T03:18:01.543Z,3.80
2023-04-22T03:20:30.689Z,3.30
2023-04-22T03:22:59.234Z,4.35
2023-04-22T03:25:28.954Z,3.13
2023-04-22T03:28:00.389Z,3.08
2023-04-22T03:30:28.937Z,4.43
2023-04-22T03:32:58.023Z,4.13
2023-04-22T03:35:33.727Z,4.05
2023-04-22T03:38:03.522Z,2.53
2023-04-22T03:40:35.392Z,4.88
2023-04-22T03:43:11.303Z,2.53
2023-04-22T03:45:40.834Z,3.47
2023-04-22T03:48:17.312Z,3.50
2023-04-22T03:50:50.210Z,3.58
2023-04-22T03:53:19.568Z,3.38
2023-04-22T03:55:48.365Z,3.63
2023-04-22T03:58:20.963Z,4.07
2023-04-22T04:14:16.669Z,5.25
2023-04-22T04:16:50.060Z,1.90
2023-04-22T04:19:26.714Z,3.03
2023-04-22T04:21:55.690Z,3.67
2023-04-22T04:24:25.928Z,3.05
2023-04-22T04:27:02.025Z,3.47
2023-04-22T04:29:38.583Z,5.40
2023-04-22T04:32:14.972Z,4.30
2023-04-22T04:34:44.025Z,4.18
2023-04-22T04:37:14.332Z,2.30
2023-04-22T04:39:59.343Z,3.50
2023-04-22T04:42:35.138Z,4.65
2023-04-22T04:45:09.361Z,3.67
2023-04-22T04:47:39.650Z,4.18
2023-04-22T04:50:17.046Z,3.40
2023-04-22T04:52:46.302Z,2.65
2023-04-22T04:55:15.039Z,4.63
2023-04-22T04:57:45.590Z,3.42
2023-04-22T05:00:15.881Z,2.88
2023-04-22T05:02:47.089Z,3.28
2023-04-22T05:05:16.511Z,3.42
2023-04-22T05:07:45.626Z,3.95
2023-04-22T05:10:16.565Z,3.65
2023-04-22T05:12:47.915Z,3.90
2023-04-22T05:15:22.292Z,2.88
2023-04-22T05:17:52.341Z,4.10
2023-04-22T05:20:21.148Z,4.15
2023-04-22T05:22:49.892Z,3.83
2023-04-22T05:25:19.200Z,3.90
2023-04-22T05:27:56.554Z,2.95
2023-04-22T05:30:27.357Z,2.95
2023-04-22T05:32:57.395Z,3.95
2023-04-22T05:35:26.276Z,3.97
2023-04-22T05:37:54.808Z,4.38
2023-04-22T05:40:23.456Z,3.53
2023-04-22T05:42:52.579Z,3.38
2023-04-22T05:45:21.271Z,4.38
2023-04-22T05:47:49.986Z,3.13
2023-04-22T05:50:23.454Z,2.53
2023-04-22T05:53:00.783Z,3.03
2023-04-22T05:55:30.866Z,3.10
2023-04-22T05:57:59.548Z,3.15
2023-04-22T06:00:39.443Z,2.83
2023-04-22T06:03:31.416Z,2.90
2023-04-22T06:06:01.713Z,3.80
2023-04-22T06:08:32.456Z,4.53
2023-04-22T06:11:01.058Z,3.78
2023-04-22T06:13:32.753Z,3.90
2023-04-22T06:16:02.191Z,3.65
2023-04-22T06:18:32.421Z,2.88
2023-04-22T06:21:03.138Z,4.07
2023-04-22T06:23:32.184Z,3.90
2023-04-22T06:26:01.719Z,4.18
2023-04-22T06:28:31.873Z,3.35
2023-04-22T06:31:04.078Z,4.90
2023-04-22T06:33:32.654Z,4.60
2023-04-22T06:36:05.170Z,4.95
2023-04-22T06:38:34.866Z,4.00
2023-04-22T06:41:29.907Z,4.22
2023-04-22T06:44:03.357Z,4.50
2023-04-22T06:46:43.645Z,4.57
2023-04-22T06:49:32.471Z,3.50
2023-04-22T06:52:24.232Z,2.83
2023-04-22T06:54:55.595Z,2.50
2023-04-22T06:57:24.333Z,4.53
2023-04-22T06:59:52.939Z,4.20
2023-04-22T07:02:22.781Z,4.45
2023-04-22T07:04:51.732Z,4.03
2023-04-22T07:07:20.476Z,4.85
2023-04-22T07:09:50.522Z,3.67
2023-04-22T07:12:19.067Z,3.22
2023-04-22T07:14:47.700Z,3.35
2023-04-22T07:17:19.416Z,3.40
2023-04-22T07:19:48.055Z,3.70
2023-04-22T07:22:16.769Z,3.90
2023-04-22T07:24:45.349Z,5.55
2023-04-22T07:27:15.755Z,5.18
2023-04-22T07:29:44.406Z,4.03
2023-04-22T07:32:13.013Z,4.28
2023-04-22T07:34:41.549Z,3.67
2023-04-22T07:37:10.226Z,5.93
2023-04-22T07:39:39.072Z,6.15
2023-04-22T07:42:08.115Z,5.18
2023-04-22T07:44:39.415Z,4.28
2023-04-22T07:47:08.960Z,5.50
2023-04-22T07:49:37.844Z,4.43
2023-04-22T07:52:06.756Z,5.07
2023-04-22T07:54:35.302Z,5.38
2023-04-22T07:57:03.864Z,3.63
2023-04-22T07:59:32.383Z,4.72
2023-04-22T08:02:02.389Z,3.35
2023-04-22T08:04:31.223Z,3.13
2023-04-22T08:07:01.808Z,3.17
2023-04-22T08:09:30.642Z,2.95
2023-04-22T08:11:59.309Z,4.95
2023-04-22T08:14:27.956Z,2.38
2023-04-22T08:16:57.081Z,4.15
2023-04-22T08:19:27.068Z,2.47
2023-04-22T08:21:55.594Z,2.47
2023-04-22T08:24:24.355Z,2.08
2023-04-22T08:26:52.939Z,2.72
2023-04-22T08:29:21.744Z,3.38
2023-04-22T08:31:50.386Z,3.60
2023-04-22T08:34:19.053Z,3.42
2023-04-22T08:36:49.088Z,3.72
2023-04-22T08:39:18.329Z,2.25
2023-04-22T08:41:47.574Z,3.88
2023-04-22T08:44:16.538Z,2.88
2023-04-22T08:46:47.229Z,1.83
2023-04-22T08:49:16.874Z,2.30
2023-04-22T08:51:46.202Z,1.77
2023-04-22T08:54:16.372Z,3.13
2023-04-22T08:56:46.730Z,1.92
2023-04-22T08:59:15.533Z,1.30
2023-04-22T09:01:44.932Z,1.30
2023-04-22T09:04:18.852Z,1.80
2023-04-22T09:06:47.618Z,0.85
2023-04-22T09:09:18.017Z,1.05
2023-04-22T09:11:46.541Z,2.40
2023-04-22T09:14:15.149Z,1.25
2023-04-22T09:16:47.897Z,1.77
2023-04-22T09:19:16.903Z,2.03
2023-04-22T09:21:49.099Z,1.98
2023-04-22T09:24:20.783Z,2.95
2023-04-22T09:26:57.297Z,2.92
2023-04-22T09:29:31.859Z,1.25
2023-04-22T09:32:00.504Z,1.20
2023-04-22T09:34:29.287Z,1.08
2023-04-22T09:36:57.898Z,0.85
2023-04-22T09:39:27.802Z,1.02
2023-04-22T09:41:56.755Z,0.73
2023-04-22T09:44:29.084Z,0.82
2023-04-22T09:46:57.741Z,1.00
2023-04-22T09:49:28.833Z,1.33
2023-04-22T09:51:59.052Z,0.85
2023-04-22T09:54:29.021Z,1.60
2023-04-22T09:56:57.546Z,1.35
2023-04-22T09:59:28.263Z,0.65
2023-04-22T10:01:58.098Z,1.00
2023-04-22T10:04:27.042Z,0.85
2023-04-22T10:06:56.426Z,0.88
2023-04-22T10:09:26.344Z,0.90
2023-04-22T10:11:59.239Z,2.25
2023-04-22T10:14:28.141Z,0.50
2023-04-22T10:17:00.183Z,1.08
2023-04-22T10:19:30.067Z,1.50
2023-04-22T10:22:00.894Z,1.42
2023-04-22T10:24:30.439Z,1.13
2023-04-22T10:27:01.695Z,1.38
2023-04-22T10:29:39.044Z,1.13
2023-04-22T10:32:25.020Z,1.40
2023-04-22T10:35:09.878Z,1.33
2023-04-22T10:37:40.080Z,1.45
2023-04-22T10:40:11.698Z,1.63
2023-04-22T10:42:48.628Z,1.17
2023-04-22T10:45:17.536Z,2.72
2023-04-22T10:47:46.409Z,1.92
2023-04-22T10:50:21.337Z,1.65
2023-04-22T10:52:52.191Z,2.15
2023-04-22T10:55:21.452Z,2.08
2023-04-22T10:57:52.766Z,2.00
2023-04-22T11:00:29.570Z,1.77
2023-04-22T11:03:19.177Z,2.47
2023-04-22T11:05:47.906Z,1.05
2023-04-22T11:08:21.784Z,2.00
2023-04-22T11:10:51.645Z,1.35
2023-04-22T11:13:22.721Z,2.72
2023-04-22T11:15:54.235Z,2.50
2023-04-22T11:18:24.775Z,1.77
2023-04-22T11:20:54.389Z,1.73
2023-04-22T11:23:25.295Z,2.08
2023-04-22T11:25:58.037Z,1.20
2023-04-22T11:28:28.314Z,1.50
2023-04-22T11:31:04.339Z,1.77
2023-04-22T11:33:34.020Z,1.15
2023-04-22T11:36:02.950Z,1.25
2023-04-22T11:38:31.904Z,1.42
2023-04-22T11:41:00.608Z,0.88
2023-04-22T11:43:31.128Z,1.60
2023-04-22T13:04:21.943Z,0.73
2023-04-22T13:06:56.313Z,0.90
2023-04-22T13:09:26.344Z,1.20
2023-04-22T13:11:54.982Z,1.38
2023-04-22T13:14:23.653Z,1.02
2023-04-22T13:16:53.022Z,1.63
2023-04-22T13:19:25.761Z,1.50
2023-04-22T13:21:54.603Z,2.55
2023-04-22T13:24:23.375Z,1.33
2023-04-22T13:26:51.964Z,2.95
2023-04-22T13:29:20.539Z,1.20
2023-04-22T13:31:49.111Z,1.52
2023-04-22T13:34:17.809Z,1.77
2023-04-22T13:37:15.097Z,1.25
2023-04-22T13:39:44.851Z,2.13
2023-04-22T13:42:13.768Z,1.95
2023-04-22T13:44:42.305Z,1.75
2023-04-22T13:47:11.035Z,1.35
2023-04-22T13:49:39.898Z,1.65
2023-04-22T13:52:08.570Z,1.55
2023-04-22T13:54:38.596Z,1.48
2023-04-22T13:57:07.151Z,1.75
2023-04-22T13:59:37.190Z,2.45
2023-04-22T14:02:05.954Z,1.33
2023-04-22T14:04:34.833Z,2.20
2023-04-22T14:07:04.216Z,1.48
2023-04-22T14:09:32.887Z,3.05
2023-04-22T14:12:03.386Z,1.15
2023-04-22T14:14:31.965Z,1.75
2023-04-22T14:17:00.984Z,1.50
2023-04-22T14:19:30.656Z,2.40
2023-04-22T14:21:59.499Z,1.67
2023-04-22T14:24:28.118Z,2.35
2023-04-22T14:27:00.013Z,1.42
2023-04-22T14:29:31.912Z,2.08
2023-04-22T14:32:01.366Z,1.90
2023-04-22T14:34:29.948Z,0.95
2023-04-22T14:36:58.490Z,1.17
2023-04-22T14:39:27.110Z,1.83
2023-04-22T14:41:57.022Z,1.77
2023-04-22T14:44:25.580Z,1.80
2023-04-22T14:46:55.515Z,1.77
2023-04-22T14:49:24.152Z,1.85
2023-04-22T14:51:53.141Z,1.77
2023-04-22T14:54:21.765Z,1.00
2023-04-22T14:56:52.172Z,2.22
2023-04-22T14:59:20.852Z,1.95
2023-04-22T15:01:49.579Z,1.35
2023-04-22T15:04:19.725Z,3.35
2023-04-22T15:06:48.359Z,2.25
2023-04-22T15:09:17.008Z,3.15
2023-04-22T15:11:45.560Z,2.75
2023-04-22T15:14:16.055Z,2.92
2023-04-22T15:16:45.907Z,2.03
2023-04-22T15:19:15.360Z,3.10
2023-04-22T15:21:46.837Z,1.90
2023-04-22T15:24:15.365Z,1.33
2023-04-22T15:26:43.957Z,1.98
2023-04-22T15:29:12.627Z,2.45
2023-04-22T15:31:41.348Z,2.58
2023-04-22T15:34:09.984Z,2.50
2023-04-22T15:36:38.728Z,2.47
2023-04-22T15:39:10.771Z,1.27
2023-04-22T15:41:39.427Z,1.35
2023-04-22T15:44:08.929Z,2.65
2023-04-22T15:46:38.745Z,3.03
2023-04-22T15:49:07.306Z,2.78
2023-04-22T15:51:35.878Z,2.20
2023-04-22T15:54:04.840Z,1.52
2023-04-22T15:56:34.834Z,1.67
2023-04-22T15:59:03.417Z,1.83
2023-04-22T16:01:32.327Z,2.25
2023-04-22T16:04:01.213Z,1.42
2023-04-22T16:06:30.146Z,2.55
2023-04-22T16:08:58.673Z,1.20
2023-04-22T16:11:27.257Z,1.48
2023-04-22T16:13:57.189Z,3.53
2023-04-22T16:16:27.808Z,2.67
2023-04-22T16:18:56.526Z,2.25
2023-04-22T16:21:25.538Z,1.98
2023-04-22T16:23:54.183Z,1.95
2023-04-22T16:26:22.754Z,2.20
2023-04-22T16:28:51.413Z,2.17
2023-04-22T16:31:23.137Z,2.75
2023-04-22T16:33:52.656Z,2.95
2023-04-22T16:36:21.636Z,3.67
2023-04-22T16:38:50.185Z,1.48
2023-04-22T16:41:18.804Z,2.55
2023-04-22T16:43:47.404Z,1.73
2023-04-22T16:46:16.108Z,2.53
2023-04-22T16:48:46.064Z,1.95
2023-04-22T16:51:14.644Z,2.55
2023-04-22T16:53:43.234Z,2.58
2023-04-22T16:56:11.917Z,2.20
2023-04-22T16:58:40.414Z,2.13
2023-04-22T17:01:09.256Z,2.63
2023-04-22T17:03:38.002Z,2.38
2023-04-22T17:06:08.460Z,2.15
2023-04-22T17:08:37.089Z,2.65
2023-04-22T17:11:06.271Z,2.17
2023-04-22T17:13:34.861Z,3.25
2023-04-22T17:16:03.500Z,1.48
2023-04-22T17:18:32.019Z,2.90
2023-04-22T17:21:00.689Z,1.80
2023-04-22T17:23:30.727Z,1.25
2023-04-22T17:25:59.547Z,1.75
2023-04-22T17:28:57.346Z,1.88
2023-04-22T17:31:26.003Z,1.50
2023-04-22T17:33:54.937Z,1.98
2023-04-22T17:36:23.992Z,1.52
2023-04-22T17:38:53.957Z,1.98
2023-04-22T17:41:23.506Z,1.75
2023-04-22T17:43:52.628Z,2.05
2023-04-22T17:46:21.360Z,2.17
2023-04-22T17:48:49.999Z,1.88
2023-04-22T17:51:18.570Z,1.40
2023-04-22T17:53:47.057Z,2.55
2023-04-22T17:56:16.948Z,3.30
2023-04-22T17:58:45.566Z,2.17
2023-04-22T18:01:14.625Z,3.05
2023-04-22T18:03:43.988Z,3.25
2023-04-22T18:06:12.799Z,3.47
2023-04-22T18:08:42.620Z,2.53
2023-04-22T18:11:11.362Z,1.50
2023-04-22T18:13:41.440Z,1.65
2023-04-22T18:16:09.920Z,2.35
2023-04-22T18:18:38.893Z,1.58
2023-04-22T18:21:07.548Z,2.55
2023-04-22T18:23:36.344Z,2.03
2023-04-22T18:26:09.704Z,1.38
2023-04-22T18:28:40.233Z,2.38
2023-04-22T18:31:10.301Z,2.67
2023-04-22T18:33:39.144Z,2.90
2023-04-22T18:36:08.267Z,2.25
2023-04-22T18:38:38.698Z,2.20
2023-04-22T18:41:07.359Z,2.65
2023-04-22T18:43:36.634Z,2.85
2023-04-22T18:46:05.410Z,5.03
2023-04-22T18:48:35.568Z,3.33
2023-04-22T18:51:04.207Z,3.20
2023-04-22T18:53:34.283Z,4.75
2023-04-22T18:56:03.056Z,4.38
2023-04-22T18:58:31.654Z,7.65
2023-04-22T19:01:00.271Z,4.72
2023-04-22T19:03:29.180Z,4.18
2023-04-22T19:05:59.316Z,4.55
2023-04-22T19:08:27.938Z,3.60
2023-04-22T19:10:56.504Z,3.45
2023-04-22T19:13:29.709Z,3.80
2023-04-22T19:16:00.005Z,5.13
2023-04-22T19:18:28.760Z,3.03
2023-04-22T19:20:59.060Z,2.92
2023-04-22T19:23:27.670Z,3.13
2023-04-22T19:25:56.851Z,2.42
2023-04-22T19:28:25.526Z,3.15
2023-04-22T19:30:54.118Z,4.70
2023-04-22T19:33:22.769Z,4.65
2023-04-22T19:35:51.360Z,4.03
2023-04-22T19:38:23.235Z,5.45
2023-04-22T19:40:52.243Z,3.70
2023-04-22T19:43:21.946Z,5.43
2023-04-22T19:45:50.537Z,5.72
2023-04-22T19:48:19.583Z,4.63
2023-04-22T19:50:49.847Z,4.93
2023-04-22T19:53:21.171Z,3.05
2023-04-22T19:55:50.189Z,7.03
2023-04-22T19:58:19.162Z,4.65
2023-04-22T20:00:48.385Z,5.55
2023-04-22T20:03:17.369Z,3.83
2023-04-22T20:05:46.678Z,4.80
2023-04-22T20:08:15.934Z,4.07
2023-04-22T20:10:48.131Z,4.28
2023-04-22T20:13:16.907Z,3.95
2023-04-22T20:15:45.984Z,5.05
2023-04-22T20:18:14.752Z,3.95
2023-04-22T20:20:45.789Z,3.95
2023-04-22T20:23:15.585Z,4.88
2023-04-22T20:25:45.795Z,3.92
2023-04-22T20:28:15.113Z,4.00
2023-04-22T20:30:43.872Z,3.67
2023-04-22T20:33:15.863Z,3.45
2023-04-22T20:35:46.170Z,4.35
2023-04-22T20:38:15.260Z,3.13
2023-04-22T20:40:47.087Z,3.90
2023-04-22T20:43:16.052Z,3.25
2023-04-22T20:45:44.599Z,4.38
2023-04-22T20:48:13.230Z,3.47
2023-04-22T20:50:41.862Z,3.67
2023-04-22T20:53:10.562Z,4.32
2023-04-22T20:55:46.656Z,3.17
2023-04-22T20:58:15.575Z,3.10
2023-04-22T21:00:44.405Z,4.00
2023-04-22T21:03:15.868Z,4.32
2023-04-22T21:05:46.575Z,3.28
2023-04-22T21:08:23.128Z,3.92
2023-04-22T21:10:55.365Z,4.85
2023-04-22T21:13:25.740Z,3.90
2023-04-22T21:15:58.989Z,3.03
2023-04-22T21:18:29.350Z,5.00
2023-04-22T21:20:58.640Z,2.80
2023-04-22T21:23:27.894Z,3.40
2023-04-22T21:26:00.600Z,5.80
2023-04-22T21:28:29.680Z,6.40
2023-04-22T21:30:58.936Z,4.65
2023-04-22T21:33:27.567Z,4.25
2023-04-22T21:35:56.493Z,5.13
2023-04-22T21:38:25.059Z,5.00
2023-04-22T21:40:53.668Z,3.97
2023-04-22T21:43:23.797Z,4.57
2023-04-22T21:45:52.405Z,6.57
2023-04-22T21:48:21.065Z,6.40
2023-04-22T21:50:49.690Z,8.15
2023-04-22T21:53:19.558Z,7.05
2023-04-22T21:55:48.205Z,5.10
2023-04-22T21:58:16.741Z,5.45
2023-04-22T22:00:46.637Z,7.30
2023-04-22T22:03:15.219Z,6.57
2023-04-22T22:05:44.404Z,5.80
2023-04-22T22:08:14.048Z,6.50
2023-04-22T22:10:43.646Z,6.32
2023-04-22T22:13:12.213Z,4.18
2023-04-22T22:15:40.876Z,6.07
2023-04-22T22:18:10.827Z,7.25
2023-04-22T22:20:39.617Z,5.20
2023-04-22T22:23:08.142Z,3.70
2023-04-22T22:25:36.716Z,4.50
2023-04-22T22:28:05.314Z,4.40
2023-04-22T22:30:33.911Z,5.93
2023-04-22T22:33:02.484Z,4.53
2023-04-22T22:35:32.458Z,5.47
2023-04-22T22:38:01.132Z,4.60
2023-04-22T22:40:29.788Z,4.72
2023-04-22T22:42:58.340Z,6.10
2023-04-22T22:45:27.013Z,4.88
2023-04-22T22:47:55.544Z,4.10
2023-04-22T22:50:24.790Z,4.38
2023-04-22T22:52:54.964Z,4.28
2023-04-22T22:55:23.644Z,4.50
2023-04-22T22:57:52.144Z,4.75
2023-04-22T23:00:20.857Z,5.28
2023-04-22T23:02:49.564Z,5.80
2023-04-22T23:05:18.330Z,3.85
2023-04-22T23:07:46.882Z,5.13
2023-04-22T23:10:16.858Z,4.78
2023-04-22T23:12:45.529Z,5.30
2023-04-22T23:15:14.045Z,5.18
2023-04-22T23:17:42.996Z,3.88
2023-04-22T23:20:12.401Z,5.15
2023-04-22T23:22:41.408Z,4.28
2023-04-22T23:25:11.484Z,5.32
2023-04-22T23:27:42.504Z,4.90
2023-04-22T23:30:12.156Z,4.47
2023-04-22T23:32:41.619Z,5.85
2023-04-22T23:35:13.762Z,7.78
2023-04-22T23:37:45.466Z,5.35
2023-04-22T23:40:14.740Z,9.82
2023-04-22T23:42:44.792Z,6.53
2023-04-22T23:45:13.646Z,6.20
2023-04-22T23:47:42.304Z,3.78
2023-04-22T23:50:12.209Z,4.68
2023-04-22T23:52:42.718Z,5.53
2023-04-22T23:55:14.038Z,8.30
2023-04-22T23:57:44.879Z,5.95
